Time;durP1;ratioP1;P1;durP2;ratioP2;P2;SDS_P1;SDS_P2;PMS_P1;PMS_P2;Temp;Humidity;BMP_temperature;BMP_pressure;BME280_temperature;BME280_humidity;BME280_pressure;Samples;Min_cycle;Max_cycle;Signal;HPM_P1;HPM_P2
2020/04/07 00:01:01;;;;;;;24;15.4;;;;;;;9.58;65.52148;968.4409;;;;
2020/04/07 00:03:26;;;;;;;20.4;14.1;;;;;;;9.64;66.16211;968.4269;;;;
2020/04/07 00:05:51;;;;;;;20.2;13.9;;;;;;;9.54;66.11133;968.4546;;;;
2020/04/07 00:08:16;;;;;;;20.7;14.3;;;;;;;9.51;66.65723;968.4542;;;;
2020/04/07 00:10:41;;;;;;;20.9;14.4;;;;;;;9.44;66.45215;968.4942;;;;
2020/04/07 00:13:07;;;;;;;21.2;15.5;;;;;;;9.45;67.12988;968.4756;;;;
2020/04/07 00:15:32;;;;;;;23.6;14.3;;;;;;;9.43;66.27734;968.4897;;;;
2020/04/07 00:17:57;;;;;;;22.6;14.6;;;;;;;9.28;66.17676;968.5516;;;;
2020/04/07 00:20:22;;;;;;;21.2;15.2;;;;;;;9.32;65.15918;968.5505;;;;
2020/04/07 00:22:47;;;;;;;21.4;14.8;;;;;;;9.4;66.65234;968.5301;;;;
2020/04/07 00:25:12;;;;;;;19.1;14.1;;;;;;;9.46;66.45605;968.5577;;;;
2020/04/07 00:27:38;;;;;;;19.6;14.3;;;;;;;9.41;67.01074;968.5491;;;;
2020/04/07 00:30:03;;;;;;;23.5;15.2;;;;;;;9.26;66.10352;968.616;;;;
2020/04/07 00:32:29;;;;;;;22.2;14.6;;;;;;;9.27;65.97852;968.5289;;;;
2020/04/07 00:34:53;;;;;;;21.1;14.5;;;;;;;9.31;65.91699;968.5714;;;;
2020/04/07 00:37:20;;;;;;;19.4;14.4;;;;;;;9.22;66.8418;968.576;;;;
2020/04/07 00:39:45;;;;;;;22.1;14.8;;;;;;;9.17;66.31934;968.6309;;;;
2020/04/07 00:42:10;;;;;;;23.3;15.4;;;;;;;9.21;65.40723;968.6429;;;;
2020/04/07 00:44:35;;;;;;;23.1;14.5;;;;;;;9.11;66.98438;968.644;;;;
2020/04/07 00:47:00;;;;;;;21.8;14.7;;;;;;;9.41;62.32715;968.5581;;;;
2020/04/07 00:49:25;;;;;;;21.3;14.7;;;;;;;9.2;65.33691;968.6167;;;;
2020/04/07 00:51:50;;;;;;;20.1;14.3;;;;;;;9.2;64.69434;968.6589;;;;
2020/04/07 00:54:16;;;;;;;24.4;14.8;;;;;;;9.23;64.22949;968.6617;;;;
2020/04/07 00:56:41;;;;;;;21.2;15.2;;;;;;;9.17;65.66504;968.6733;;;;
2020/04/07 00:59:07;;;;;;;23.7;14.7;;;;;;;9.17;65.57324;968.7074;;;;
2020/04/07 01:01:36;;;;;;;23.3;15;;;;;;;9.16;65.62793;968.7249;;;;
2020/04/07 01:04:01;;;;;;;22.7;15.2;;;;;;;8.99;66.26953;968.7322;;;;
2020/04/07 01:06:26;;;;;;;21.3;14.6;;;;;;;8.99;66.48535;968.7473;;;;
2020/04/07 01:08:51;;;;;;;20.2;14.3;;;;;;;8.89;66.55176;968.7031;;;;
2020/04/07 01:11:17;;;;;;;21;14.7;;;;;;;8.97;66.54102;968.6892;;;;
2020/04/07 01:13:41;;;;;;;21.2;14.7;;;;;;;8.98;65.00586;968.7139;;;;
2020/04/07 01:16:07;;;;;;;20.7;14.7;;;;;;;8.89;65.74902;968.677;;;;
2020/04/07 01:18:32;;;;;;;22.1;15;;;;;;;8.93;65.55957;968.707;;;;
2020/04/07 01:20:58;;;;;;;21.9;14;;;;;;;8.98;65.99023;968.6836;;;;
2020/04/07 01:23:23;;;;;;;21.7;14.6;;;;;;;8.97;66.24121;968.7383;;;;
2020/04/07 01:25:48;;;;;;;23.2;14.8;;;;;;;8.78;66.21387;968.6976;;;;
2020/04/07 01:28:13;;;;;;;22.2;14.1;;;;;;;8.94;65.03516;968.7177;;;;
2020/04/07 01:30:40;;;;;;;22.5;14.3;;;;;;;8.84;67.63184;968.7194;;;;
2020/04/07 01:33:05;;;;;;;22;14.7;;;;;;;8.74;66.5166;968.7644;;;;
2020/04/07 01:35:31;;;;;;;21;14.3;;;;;;;8.68;66.47363;968.7676;;;;
2020/04/07 01:37:56;;;;;;;22.7;15;;;;;;;8.72;66.36523;968.7927;;;;
2020/04/07 01:40:21;;;;;;;21.8;14.5;;;;;;;8.74;66.20703;968.7967;;;;
2020/04/07 01:42:47;;;;;;;19.2;13.6;;;;;;;8.7;65.63965;968.782;;;;
2020/04/07 01:45:12;;;;;;;20.2;13.9;;;;;;;8.73;66.44629;968.7947;;;;
2020/04/07 01:47:37;;;;;;;18.1;13.1;;;;;;;8.75;67.43457;968.7874;;;;
2020/04/07 01:50:03;;;;;;;21;14.5;;;;;;;8.69;67.24316;968.8265;;;;
2020/04/07 01:52:28;;;;;;;22.7;15.1;;;;;;;8.63;67.20996;968.8426;;;;
2020/04/07 01:54:55;;;;;;;20.2;14.2;;;;;;;8.54;68.11133;968.8639;;;;
2020/04/07 01:57:20;;;;;;;18.8;14.4;;;;;;;8.46;68.16699;968.8677;;;;
2020/04/07 01:59:46;;;;;;;20.6;13.6;;;;;;;8.4;67.5293;968.9352;;;;
2020/04/07 02:02:11;;;;;;;20.7;14.4;;;;;;;8.47;67.50586;968.9512;;;;
2020/04/07 02:04:38;;;;;;;18.9;13.5;;;;;;;8.3;67.99414;968.9705;;;;
2020/04/07 02:07:03;;;;;;;18.5;13.4;;;;;;;8.32;68.11133;968.9594;;;;
2020/04/07 02:09:31;;;;;;;16.8;12.8;;;;;;;8.39;66.59863;968.998;;;;
2020/04/07 02:11:56;;;;;;;20.1;13.6;;;;;;;8.3;68.50977;969.0452;;;;
2020/04/07 02:14:21;;;;;;;20;13.8;;;;;;;8.08;69.43457;969.0332;;;;
2020/04/07 02:16:46;;;;;;;18.5;13.1;;;;;;;8.11;68.59375;969.0531;;;;
2020/04/07 02:19:11;;;;;;;22.1;13.1;;;;;;;8.14;68.63281;969.0829;;;;
2020/04/07 02:21:37;;;;;;;20.6;13.3;;;;;;;8.18;67.63281;969.1083;;;;
2020/04/07 02:24:02;;;;;;;19.5;13.3;;;;;;;8.27;66.71777;969.1339;;;;
2020/04/07 02:26:27;;;;;;;18.8;12.9;;;;;;;8.24;66.69043;969.1013;;;;
2020/04/07 02:28:53;;;;;;;21.3;13.9;;;;;;;8.18;68.02148;969.1269;;;;
2020/04/07 02:31:19;;;;;;;19.8;13.4;;;;;;;8.21;68.10645;969.1916;;;;
2020/04/07 02:33:44;;;;;;;18.5;13;;;;;;;8.13;67.75;969.2058;;;;
2020/04/07 02:36:10;;;;;;;16.7;12.2;;;;;;;8.17;67.49414;969.2768;;;;
2020/04/07 02:38:35;;;;;;;21.6;14.1;;;;;;;8.13;68.72266;969.3031;;;;
2020/04/07 02:41:00;;;;;;;18.2;13;;;;;;;7.94;69.03613;969.3233;;;;
2020/04/07 02:43:25;;;;;;;18.3;13.5;;;;;;;7.93;68.87305;969.2971;;;;
2020/04/07 02:45:51;;;;;;;19.4;13.6;;;;;;;7.89;69.14258;969.3624;;;;
2020/04/07 02:48:16;;;;;;;19.7;13.2;;;;;;;8;69.20605;969.3787;;;;
2020/04/07 02:50:42;;;;;;;18.4;12.8;;;;;;;8.12;67.22168;969.3501;;;;
2020/04/07 02:53:07;;;;;;;17.6;12.7;;;;;;;8.08;69.00195;969.4052;;;;
2020/04/07 02:55:32;;;;;;;18.3;13.4;;;;;;;8.07;69.67383;969.3914;;;;
2020/04/07 02:57:58;;;;;;;20;13.2;;;;;;;8;69.23926;969.4045;;;;
2020/04/07 03:00:23;;;;;;;19;13;;;;;;;8.02;69.2666;969.4057;;;;
2020/04/07 03:02:49;;;;;;;18.6;12.3;;;;;;;8.02;69.28906;969.413;;;;
2020/04/07 03:05:16;;;;;;;17.3;12.5;;;;;;;7.87;69.33301;969.4151;;;;
2020/04/07 03:07:40;;;;;;;15.9;11.9;;;;;;;7.92;69.90039;969.452;;;;
2020/04/07 03:10:10;;;;;;;19.5;13.2;;;;;;;7.91;71.12207;969.4508;;;;
2020/04/07 03:12:35;;;;;;;21.6;13.1;;;;;;;7.81;70.61523;969.4238;;;;
2020/04/07 03:15:10;;;;;;;16.3;12.4;;;;;;;7.89;69.67871;969.4978;;;;
2020/04/07 03:17:38;;;;;;;18.3;12.9;;;;;;;7.96;69.87207;969.5222;;;;
2020/04/07 03:19:57;;;;;;;20.5;12.7;;;;;;;8.04;69.06348;969.5363;;;;
2020/04/07 03:22:12;;;;;;;16.9;12.2;;;;;;;7.86;69.54883;969.5159;;;;
2020/04/07 03:24:37;;;;;;;19.3;13;;;;;;;7.93;70.13086;969.5126;;;;
2020/04/07 03:27:04;;;;;;;18.1;12.8;;;;;;;7.8;70.16797;969.5156;;;;
2020/04/07 03:29:29;;;;;;;18.8;12.8;;;;;;;7.76;70.5166;969.6057;;;;
2020/04/07 03:31:55;;;;;;;16.4;12.7;;;;;;;7.76;70.42383;969.65;;;;
2020/04/07 03:34:20;;;;;;;19.5;12.9;;;;;;;7.72;70.23438;969.6072;;;;
2020/04/07 03:36:46;;;;;;;18.3;12.9;;;;;;;7.68;71.06152;969.6219;;;;
2020/04/07 03:39:11;;;;;;;16.1;12.2;;;;;;;7.82;70.06738;969.5513;;;;
2020/04/07 03:41:38;;;;;;;16.7;12.4;;;;;;;7.72;71.02344;969.6072;;;;
2020/04/07 03:44:03;;;;;;;16.2;12.3;;;;;;;7.76;69.52148;969.63;;;;
2020/04/07 03:48:03;;;;;;;20;13.4;;;;;;;7.67;70.62598;969.6841;;;;
2020/04/07 03:50:28;;;;;;;17.9;13;;;;;;;7.65;71.65234;969.6741;;;;
2020/04/07 03:53:11;;;;;;;16.6;12.1;;;;;;;7.7;70.87012;969.7137;;;;
2020/04/07 03:55:18;;;;;;;17.2;12.8;;;;;;;7.78;70.14063;969.7542;;;;
2020/04/07 03:57:43;;;;;;;18.6;12.8;;;;;;;7.66;71.17285;969.7381;;;;
2020/04/07 04:02:26;;;;;;;18;12.8;;;;;;;7.61;70.60547;969.7859;;;;
2020/04/07 04:04:51;;;;;;;18.7;13.3;;;;;;;7.59;71.36719;969.8083;;;;
2020/04/07 04:07:16;;;;;;;20.9;13.2;;;;;;;7.66;70.13477;969.8194;;;;
2020/04/07 04:09:42;;;;;;;18;12.9;;;;;;;7.57;70.65527;969.8401;;;;
2020/04/07 04:12:07;;;;;;;19;13.2;;;;;;;7.58;70.8418;969.8989;;;;
2020/04/07 04:14:32;;;;;;;19.8;13.1;;;;;;;7.54;71.21094;969.8535;;;;
2020/04/07 04:16:57;;;;;;;18.6;13.2;;;;;;;7.49;71.8418;969.8937;;;;
2020/04/07 04:19:22;;;;;;;18.6;13.3;;;;;;;7.61;71.49707;969.8809;;;;
2020/04/07 04:21:47;;;;;;;21.2;12.6;;;;;;;7.59;71.25293;969.9138;;;;
2020/04/07 04:24:12;;;;;;;19.7;13.2;;;;;;;7.53;71.98633;969.9411;;;;
2020/04/07 04:26:37;;;;;;;18.2;12.7;;;;;;;7.51;71.9707;969.9528;;;;
2020/04/07 04:29:03;;;;;;;23.4;14;;;;;;;7.56;72.49414;969.9164;;;;
2020/04/07 04:31:28;;;;;;;19.9;12.9;;;;;;;7.36;72.27832;969.9478;;;;
2020/04/07 04:33:54;;;;;;;18.9;13.6;;;;;;;7.3;72.60059;969.9288;;;;
2020/04/07 04:36:20;;;;;;;17.5;12.7;;;;;;;7.32;72.98047;969.9514;;;;
2020/04/07 04:38:45;;;;;;;17.9;13.7;;;;;;;7.58;71.50391;969.9557;;;;
2020/04/07 04:41:11;;;;;;;20.4;14;;;;;;;7.54;72.42285;969.9332;;;;
2020/04/07 04:43:37;;;;;;;19.7;14.7;;;;;;;7.37;73.04492;970.0025;;;;
2020/04/07 04:46:02;;;;;;;18.2;14.5;;;;;;;7.32;73.48242;970.0309;;;;
2020/04/07 04:48:29;;;;;;;19.5;15.1;;;;;;;7.25;73.7793;970.068;;;;
2020/04/07 04:50:54;;;;;;;21.1;16.5;;;;;;;7.28;73.47559;970.0695;;;;
2020/04/07 04:53:19;;;;;;;19.3;15.7;;;;;;;7.36;73.04199;970.0664;;;;
2020/04/07 04:55:45;;;;;;;21.3;15.7;;;;;;;7.41;72.7998;970.0659;;;;
2020/04/07 04:58:11;;;;;;;19.7;15.8;;;;;;;7.41;72.83594;970.1707;;;;
2020/04/07 05:01:34;;;;;;;19.8;15.6;;;;;;;7.43;73.54688;970.1174;;;;
2020/04/07 05:08:28;;;;;;;18.9;15.4;;;;;;;7.45;72.7041;970.1914;;;;
2020/04/07 05:11:08;;;;;;;20.8;15.7;;;;;;;7.55;72.17285;970.1985;;;;
2020/04/07 05:13:19;;;;;;;19.3;15.3;;;;;;;7.5;72.28906;970.1983;;;;
2020/04/07 05:15:45;;;;;;;18.7;15.2;;;;;;;7.65;72.13184;970.2307;;;;
2020/04/07 05:21:13;;;;;;;19.6;14.5;;;;;;;7.59;71.36816;970.335;;;;
2020/04/07 05:23:38;;;;;;;21.3;15.8;;;;;;;7.63;72.03613;970.3585;;;;
2020/04/07 05:25:55;;;;;;;19.6;14.9;;;;;;;7.6;72.44434;970.3616;;;;
2020/04/07 05:28:21;;;;;;;17.1;14.1;;;;;;;7.72;71.17188;970.4299;;;;
2020/04/07 05:30:46;;;;;;;19.6;14.7;;;;;;;7.75;71.17773;970.4686;;;;
2020/04/07 05:33:12;;;;;;;20.2;15.3;;;;;;;7.83;70.50391;970.4484;;;;
2020/04/07 05:35:38;;;;;;;20.3;15;;;;;;;7.84;71.47754;970.5059;;;;
2020/04/07 05:38:04;;;;;;;20.4;14.2;;;;;;;7.84;70.9873;970.4808;;;;
2020/04/07 05:40:29;;;;;;;19.5;15;;;;;;;7.85;71.0918;970.5089;;;;
2020/04/07 05:42:55;;;;;;;18;14.3;;;;;;;7.95;70.79785;970.574;;;;
2020/04/07 05:45:20;;;;;;;22.5;14.8;;;;;;;7.94;69.84766;970.5983;;;;
2020/04/07 05:47:46;;;;;;;20.2;13.7;;;;;;;8.04;70.13867;970.5931;;;;
2020/04/07 05:50:12;;;;;;;19.6;14.6;;;;;;;8.01;71.12988;970.6495;;;;
2020/04/07 05:52:38;;;;;;;18.3;14.3;;;;;;;8.1;70.0332;970.6436;;;;
2020/04/07 05:55:19;;;;;;;21.1;14.3;;;;;;;8.14;70.28027;970.6392;;;;
2020/04/07 05:57:28;;;;;;;22.8;15.3;;;;;;;8.14;70.6123;970.6833;;;;
2020/04/07 05:59:53;;;;;;;22.1;15.6;;;;;;;8.04;69.96582;970.6586;;;;
2020/04/07 06:02:18;;;;;;;22.8;14.8;;;;;;;8.05;69.96875;970.756;;;;
2020/04/07 06:04:43;;;;;;;20.7;14.2;;;;;;;8.1;70.59375;970.7654;;;;
2020/04/07 06:07:08;;;;;;;24.2;14.5;;;;;;;8.16;70.97168;970.7863;;;;
2020/04/07 06:09:34;;;;;;;18.7;13.4;;;;;;;8.36;69.25098;970.8191;;;;
2020/04/07 06:12:00;;;;;;;19.9;14.3;;;;;;;8.34;69.43164;970.8765;;;;
2020/04/07 06:16:57;;;;;;;22.9;13.7;;;;;;;8.61;67.99707;970.8418;;;;
2020/04/07 06:21:40;;;;;;;25.2;14;;;;;;;8.6;68.61426;970.8642;;;;
2020/04/07 06:24:05;;;;;;;20.2;12.8;;;;;;;8.8;67.5459;970.8466;;;;
2020/04/07 06:26:31;;;;;;;23.5;13.9;;;;;;;8.88;66.52734;970.8585;;;;
2020/04/07 06:28:56;;;;;;;22;14.1;;;;;;;8.95;67.09863;970.8676;;;;
2020/04/07 06:31:22;;;;;;;22.4;14.1;;;;;;;8.95;67.35059;970.9506;;;;
2020/04/07 06:33:48;;;;;;;24.2;14.3;;;;;;;9.07;66.22266;970.9924;;;;
2020/04/07 06:36:14;;;;;;;22.1;14.9;;;;;;;9.1;67.375;970.9978;;;;
2020/04/07 06:38:39;;;;;;;25.4;13.9;;;;;;;9.28;65.60254;971.0503;;;;
2020/04/07 06:41:04;;;;;;;20.7;13.7;;;;;;;9.5;65.16504;971.0669;;;;
2020/04/07 06:43:30;;;;;;;25.1;13.9;;;;;;;9.73;64.72754;971.0552;;;;
2020/04/07 06:45:55;;;;;;;19.3;13.6;;;;;;;9.86;65.9541;971.0611;;;;
2020/04/07 06:48:21;;;;;;;19.9;14.4;;;;;;;10.09;62.80469;971.059;;;;
2020/04/07 06:50:46;;;;;;;22.8;14.8;;;;;;;10.27;62.02637;971.1147;;;;
2020/04/07 06:53:13;;;;;;;19.4;14;;;;;;;10.31;61.95117;971.0736;;;;
2020/04/07 06:55:38;;;;;;;21.2;14.2;;;;;;;10.3;62.60547;971.0683;;;;
2020/04/07 06:58:04;;;;;;;24.9;14.6;;;;;;;10.54;61.00586;971.1225;;;;
2020/04/07 07:00:29;;;;;;;23.3;15.5;;;;;;;10.42;62.55371;971.1244;;;;
2020/04/07 07:02:54;;;;;;;24.5;14.8;;;;;;;10.45;61.31543;971.1206;;;;
2020/04/07 07:05:20;;;;;;;27.2;15.4;;;;;;;10.45;62.56934;971.2192;;;;
2020/04/07 07:07:45;;;;;;;24.9;14.9;;;;;;;10.46;62.69727;971.1519;;;;
2020/04/07 07:10:10;;;;;;;24.7;16;;;;;;;10.46;63.70898;971.2202;;;;
2020/04/07 07:12:38;;;;;;;23.2;16.2;;;;;;;10.69;61.81055;971.2578;;;;
2020/04/07 07:15:03;;;;;;;24.8;15.8;;;;;;;10.83;62.29102;971.2264;;;;
2020/04/07 07:17:29;;;;;;;24.8;16;;;;;;;11.04;60.94824;971.2861;;;;
2020/04/07 07:19:54;;;;;;;21.7;15.1;;;;;;;11.12;60.59082;971.2234;;;;
2020/04/07 07:22:20;;;;;;;23.2;16.6;;;;;;;11.3;59.5791;971.2283;;;;
2020/04/07 07:24:45;;;;;;;25.5;16.6;;;;;;;11.42;59.23828;971.2188;;;;
2020/04/07 07:27:10;;;;;;;20.4;15.5;;;;;;;11.45;59.85352;971.1683;;;;
2020/04/07 07:29:37;;;;;;;28.8;16.7;;;;;;;11.54;58.72363;971.19;;;;
2020/04/07 07:32:02;;;;;;;23.8;15.9;;;;;;;11.75;58.28027;971.1964;;;;
2020/04/07 07:34:28;;;;;;;27.8;17.7;;;;;;;11.71;59.10449;971.1853;;;;
2020/04/07 07:36:53;;;;;;;27;17.7;;;;;;;11.86;58.73438;971.2078;;;;
2020/04/07 07:39:19;;;;;;;27.1;17;;;;;;;12;58.17383;971.1389;;;;
2020/04/07 07:41:44;;;;;;;29.2;17.1;;;;;;;12.09;58.94922;971.1736;;;;
2020/04/07 07:44:11;;;;;;;31.8;18.2;;;;;;;12.15;57.81445;971.1544;;;;
2020/04/07 07:46:36;;;;;;;32.8;18.2;;;;;;;12.28;57.57715;971.1983;;;;
2020/04/07 07:49:01;;;;;;;29.7;17.8;;;;;;;12.42;55.54883;971.1471;;;;
2020/04/07 07:51:27;;;;;;;28.7;18.8;;;;;;;12.53;52.96191;971.1724;;;;
2020/04/07 07:54:01;;;;;;;23.8;17.3;;;;;;;12.63;53.81836;971.1503;;;;
2020/04/07 07:56:17;;;;;;;25.3;18.5;;;;;;;12.75;54.01758;971.1922;;;;
2020/04/07 07:58:42;;;;;;;28.2;18.9;;;;;;;12.79;53.87305;971.1328;;;;
2020/04/07 08:01:11;;;;;;;28.2;18.9;;;;;;;12.99;53.08691;971.1459;;;;
2020/04/07 08:05:59;;;;;;;24.8;18;;;;;;;13.2;54.02832;971.1592;;;;
2020/04/07 08:08:25;;;;;;;29;18;;;;;;;13.27;53.57422;971.1286;;;;
2020/04/07 08:10:50;;;;;;;25.1;18.7;;;;;;;13.48;52.2207;971.1359;;;;
2020/04/07 08:13:16;;;;;;;29.1;18.4;;;;;;;13.51;53.03516;971.1605;;;;
2020/04/07 08:15:42;;;;;;;27.6;18.2;;;;;;;13.58;52.92773;971.1523;;;;
2020/04/07 08:18:08;;;;;;;27.3;18.6;;;;;;;13.66;52.72852;971.2012;;;;
2020/04/07 08:20:33;;;;;;;26.6;18.4;;;;;;;13.79;50.33301;971.2126;;;;
2020/04/07 08:22:58;;;;;;;27.3;19.2;;;;;;;13.89;49.73047;971.2342;;;;
2020/04/07 08:25:23;;;;;;;25.9;19;;;;;;;13.95;49.28418;971.2586;;;;
2020/04/07 08:27:49;;;;;;;28;18.3;;;;;;;14.04;49.67676;971.2633;;;;
2020/04/07 08:30:40;;;;;;;26.4;18.6;;;;;;;14.15;49.27246;971.2949;;;;
2020/04/07 08:35:14;;;;;;;26.1;18.7;;;;;;;14.42;47.89746;971.3143;;;;
2020/04/07 08:37:38;;;;;;;25.9;17.3;;;;;;;14.58;46.26465;971.3008;;;;
2020/04/07 08:42:24;;;;;;;29.6;20.3;;;;;;;14.8;45.30078;971.3301;;;;
2020/04/07 08:44:49;;;;;;;27.1;19.5;;;;;;;14.78;45.58984;971.3128;;;;
2020/04/07 08:47:14;;;;;;;28.8;19.9;;;;;;;14.88;44.40332;971.3452;;;;
2020/04/07 08:49:39;;;;;;;25.3;17.9;;;;;;;15.01;44.67188;971.3289;;;;
2020/04/07 08:52:04;;;;;;;26.4;19.3;;;;;;;15.37;43.82324;971.3197;;;;
2020/04/07 08:54:30;;;;;;;27.6;19;;;;;;;15.64;42.12793;971.3264;;;;
2020/04/07 08:56:56;;;;;;;27.1;18.4;;;;;;;15.64;42.65234;971.2961;;;;
2020/04/07 08:59:21;;;;;;;23.7;17.7;;;;;;;15.44;43.00488;971.3411;;;;
2020/04/07 09:01:47;;;;;;;26.6;17.9;;;;;;;15.52;41.67383;971.3431;;;;
2020/04/07 09:04:12;;;;;;;24.4;15.7;;;;;;;15.67;40.74512;971.3278;;;;
2020/04/07 09:06:39;;;;;;;22.5;15.5;;;;;;;15.86;40.34375;971.3589;;;;
2020/04/07 09:09:04;;;;;;;22.2;14.6;;;;;;;16.02;41.41797;971.3787;;;;
2020/04/07 09:11:29;;;;;;;23.5;15.9;;;;;;;15.97;41.33203;971.3836;;;;
2020/04/07 09:13:55;;;;;;;22.5;16.1;;;;;;;16.04;42.20215;971.3711;;;;
2020/04/07 09:16:20;;;;;;;21.9;15.4;;;;;;;16.12;42.75781;971.3684;;;;
2020/04/07 09:18:47;;;;;;;20.4;15.2;;;;;;;16;43.43359;971.3381;;;;
2020/04/07 09:21:12;;;;;;;21.5;15.2;;;;;;;16.34;44.9248;971.3586;;;;
2020/04/07 09:23:38;;;;;;;18.9;14.1;;;;;;;16.42;44.20898;971.3588;;;;
2020/04/07 09:26:03;;;;;;;21.5;15.9;;;;;;;16.52;42.7373;971.3655;;;;
2020/04/07 09:28:35;;;;;;;25.2;15.2;;;;;;;16.58;44.19043;971.3384;;;;
2020/04/07 09:31:05;;;;;;;21.6;15.4;;;;;;;16.73;43.45898;971.3447;;;;
2020/04/07 09:33:38;;;;;;;21.8;14.9;;;;;;;16.81;42.14746;971.378;;;;
2020/04/07 09:35:53;;;;;;;23.6;14.5;;;;;;;16.78;42.4707;971.3389;;;;
2020/04/07 09:38:56;;;;;;;22.3;15;;;;;;;16.86;42.87598;971.3178;;;;
2020/04/07 09:40:40;;;;;;;22.3;13.4;;;;;;;16.92;42.4502;971.2766;;;;
2020/04/07 09:43:05;;;;;;;21.9;14;;;;;;;17.16;40.49805;971.2739;;;;
2020/04/07 09:45:30;;;;;;;19.4;13.3;;;;;;;17.22;39.62695;971.2054;;;;
2020/04/07 09:48:16;;;;;;;21.3;13.9;;;;;;;17.2;40.33887;971.1766;;;;
2020/04/07 09:50:41;;;;;;;23.2;13.6;;;;;;;17.33;38.80762;971.1863;;;;
2020/04/07 09:53:06;;;;;;;21.7;13.7;;;;;;;17.37;38.88086;971.1775;;;;
2020/04/07 09:55:32;;;;;;;21.9;12.8;;;;;;;17.51;38.01563;971.1149;;;;
2020/04/07 09:57:57;;;;;;;19.2;12.4;;;;;;;17.79;37.22168;971.0609;;;;
2020/04/07 10:00:22;;;;;;;22.9;12.8;;;;;;;17.79;37.35059;971.0494;;;;
2020/04/07 10:02:47;;;;;;;18.1;11.8;;;;;;;17.98;35.85645;971.0934;;;;
2020/04/07 10:05:17;;;;;;;18.7;11.5;;;;;;;17.86;36.19727;971.1113;;;;
2020/04/07 10:07:37;;;;;;;22;11.8;;;;;;;17.83;36.35938;971.0591;;;;
2020/04/07 10:10:03;;;;;;;19.3;11.9;;;;;;;17.97;34.71973;971.0725;;;;
2020/04/07 10:12:27;;;;;;;17.2;11.3;;;;;;;18.16;34.36035;971.019;;;;
2020/04/07 10:14:53;;;;;;;16.7;11.9;;;;;;;18.39;34.77637;971.0651;;;;
2020/04/07 10:17:18;;;;;;;18.4;11.5;;;;;;;18.39;34.58887;971.0262;;;;
2020/04/07 10:19:45;;;;;;;22.1;12.1;;;;;;;18.35;35.75781;970.9741;;;;
2020/04/07 10:22:10;;;;;;;19.8;10.9;;;;;;;18.24;35.24512;970.9625;;;;
2020/04/07 10:24:35;;;;;;;18.7;11.1;;;;;;;18.28;34.87305;970.9214;;;;
2020/04/07 10:27:00;;;;;;;16.5;10.7;;;;;;;18.37;35.70117;970.9075;;;;
2020/04/07 10:29:25;;;;;;;17;11.6;;;;;;;18.56;36.00879;970.94;;;;
2020/04/07 10:31:52;;;;;;;19.1;11.3;;;;;;;18.73;35.3418;970.9647;;;;
2020/04/07 10:34:17;;;;;;;17.4;12;;;;;;;18.76;36.13086;971.0143;;;;
2020/04/07 10:36:44;;;;;;;12.8;8.6;;;;;;;18.77;31.59277;971.0308;;;;
2020/04/07 10:39:13;;;;;;;13.3;8.2;;;;;;;18.52;31.64551;970.8977;;;;
2020/04/07 10:41:35;;;;;;;12.6;8.2;;;;;;;18.67;31.24609;970.9086;;;;
2020/04/07 10:43:59;;;;;;;11.3;7.9;;;;;;;18.65;31.30371;970.8497;;;;
2020/04/07 10:46:24;;;;;;;12.6;7.8;;;;;;;18.55;31.94043;970.8393;;;;
2020/04/07 10:48:49;;;;;;;13.6;9.1;;;;;;;18.75;32.95215;970.8719;;;;
2020/04/07 10:51:16;;;;;;;15.8;9.1;;;;;;;19.09;31.99219;970.8158;;;;
2020/04/07 10:53:41;;;;;;;13.8;8.8;;;;;;;19.06;31.33203;970.8158;;;;
2020/04/07 10:56:08;;;;;;;13.6;9;;;;;;;19.08;31.27539;970.7742;;;;
2020/04/07 10:58:33;;;;;;;13.9;9.5;;;;;;;19.14;32.1709;970.7803;;;;
2020/04/07 11:01:01;;;;;;;15.8;9.4;;;;;;;19.02;31.05957;970.7922;;;;
2020/04/07 11:03:29;;;;;;;13.8;8.3;;;;;;;19.08;31.3457;970.7007;;;;
2020/04/07 11:05:50;;;;;;;11.3;7.6;;;;;;;19.11;31.78223;970.6686;;;;
2020/04/07 11:08:16;;;;;;;12.2;7.3;;;;;;;19.24;30.99316;970.637;;;;
2020/04/07 11:10:41;;;;;;;11;7.1;;;;;;;19.06;30.4873;970.5835;;;;
2020/04/07 11:13:06;;;;;;;10.5;6.6;;;;;;;19.2;30.0625;970.5764;;;;
2020/04/07 11:15:35;;;;;;;10.8;6.2;;;;;;;19.43;29.39746;970.515;;;;
2020/04/07 11:17:58;;;;;;;8.4;6.1;;;;;;;19.38;29.46387;970.557;;;;
2020/04/07 11:20:52;;;;;;;10.1;6.4;;;;;;;19.57;28.63086;970.5642;;;;
2020/04/07 11:23:07;;;;;;;10.8;6.5;;;;;;;19.58;28.5498;970.5153;;;;
2020/04/07 11:27:48;;;;;;;10.3;6.6;;;;;;;19.54;29.06348;970.4691;;;;
2020/04/07 11:30:24;;;;;;;10.9;7.1;;;;;;;19.41;29.00879;970.428;;;;
2020/04/07 11:32:59;;;;;;;11.9;6.8;;;;;;;19.38;30.66211;970.399;;;;
2020/04/07 11:35:13;;;;;;;10.1;6.1;;;;;;;19.43;29.99609;970.3447;;;;
2020/04/07 11:38:00;;;;;;;10.9;6.8;;;;;;;19.67;29.13184;970.3155;;;;
2020/04/07 11:39:55;;;;;;;9.5;6.8;;;;;;;19.39;30.0293;970.2711;;;;
2020/04/07 11:42:21;;;;;;;14.9;8.2;;;;;;;19.56;29.81641;970.3035;;;;
2020/04/07 11:44:49;;;;;;;12.2;7.1;;;;;;;19.64;30.72656;970.2896;;;;
2020/04/07 11:47:04;;;;;;;11.1;6.5;;;;;;;19.61;30.20801;970.1944;;;;
2020/04/07 11:49:29;;;;;;;10.5;6;;;;;;;19.58;28.76074;970.2886;;;;
2020/04/07 11:51:54;;;;;;;9.4;6.3;;;;;;;19.7;28.70996;970.2908;;;;
2020/04/07 11:54:19;;;;;;;9.6;6.9;;;;;;;20.01;29.62402;970.2782;;;;
2020/04/07 11:56:44;;;;;;;9.9;6.8;;;;;;;19.97;29.45605;970.2444;;;;
2020/04/07 11:59:11;;;;;;;10.9;7.1;;;;;;;19.86;29.28516;970.2112;;;;
2020/04/07 12:01:36;;;;;;;9.5;6.6;;;;;;;20;31.43359;970.2155;;;;
2020/04/07 12:04:02;;;;;;;11.9;6.4;;;;;;;20.26;28.89941;970.2375;;;;
2020/04/07 12:06:27;;;;;;;8.7;6.1;;;;;;;20.1;28.25391;970.2633;;;;
2020/04/07 12:08:52;;;;;;;8.9;6.3;;;;;;;20.4;28.36719;970.2572;;;;
2020/04/07 12:11:19;;;;;;;9.4;6.5;;;;;;;20.16;28.92773;970.1763;;;;
2020/04/07 12:13:45;;;;;;;12.6;7.2;;;;;;;20.08;28.48828;970.198;;;;
2020/04/07 12:16:11;;;;;;;10.1;7.3;;;;;;;19.75;28.61914;970.1569;;;;
2020/04/07 12:18:36;;;;;;;9.9;6.4;;;;;;;19.99;29.92871;970.1046;;;;
2020/04/07 12:21:05;;;;;;;9.4;6.1;;;;;;;20.05;29.63867;970.0897;;;;
2020/04/07 12:23:42;;;;;;;9.6;6.7;;;;;;;20.08;28.13477;970.0913;;;;
2020/04/07 12:26:14;;;;;;;11.7;6.8;;;;;;;20;28.51855;969.9919;;;;
2020/04/07 12:28:43;;;;;;;11.6;6.6;;;;;;;20.2;28.2959;969.9927;;;;
2020/04/07 12:33:25;;;;;;;10.1;6.4;;;;;;;20.37;30.27246;970.0204;;;;
2020/04/07 12:35:47;;;;;;;10.5;6.2;;;;;;;20.58;30.47559;969.8967;;;;
2020/04/07 12:38:13;;;;;;;9.8;5.9;;;;;;;20.77;28.81543;969.9017;;;;
2020/04/07 12:43:02;;;;;;;13.4;7;;;;;;;20.55;27.75293;969.872;;;;
2020/04/07 12:45:24;;;;;;;9.2;7.1;;;;;;;20.41;28.20313;969.8206;;;;
2020/04/07 12:47:50;;;;;;;10.4;6.8;;;;;;;20.62;29.34668;969.778;;;;
2020/04/07 12:50:36;;;;;;;10.1;7;;;;;;;20.52;27.5498;969.7679;;;;
2020/04/07 12:52:59;;;;;;;9.9;6.7;;;;;;;20.51;27.87988;969.6711;;;;
2020/04/07 12:57:38;;;;;;;9.6;6.9;;;;;;;20.68;28.33789;969.656;;;;
2020/04/07 12:59:52;;;;;;;11;7;;;;;;;20.74;27.34082;969.6076;;;;
2020/04/07 13:02:17;;;;;;;10.3;6.9;;;;;;;20.7;27.86719;969.6566;;;;
2020/04/07 13:04:42;;;;;;;10.4;7.6;;;;;;;20.57;27.78906;969.6464;;;;
2020/04/07 13:07:07;;;;;;;9.5;6.6;;;;;;;20.74;27.8125;969.6135;;;;
2020/04/07 13:09:32;;;;;;;11.7;7.7;;;;;;;20.79;27.48535;969.492;;;;
2020/04/07 13:11:59;;;;;;;9.3;7;;;;;;;20.86;28.39648;969.5027;;;;
2020/04/07 13:14:26;;;;;;;10.6;7.3;;;;;;;20.83;26.99219;969.4348;;;;
2020/04/07 13:16:50;;;;;;;10.8;6.6;;;;;;;21.08;26.96094;969.4698;;;;
2020/04/07 13:19:16;;;;;;;10.4;6.7;;;;;;;20.81;26.53125;969.4217;;;;
2020/04/07 13:21:41;;;;;;;9.9;7.1;;;;;;;20.52;26.99707;969.4372;;;;
2020/04/07 13:24:06;;;;;;;8.3;6.5;;;;;;;20.81;27.17969;969.4142;;;;
2020/04/07 13:26:31;;;;;;;9.2;6.4;;;;;;;20.91;27.56348;969.4261;;;;
2020/04/07 13:28:56;;;;;;;10.7;7.2;;;;;;;20.84;28.67871;969.3658;;;;
2020/04/07 13:31:23;;;;;;;11.3;7.4;;;;;;;20.93;27.19922;969.3886;;;;
2020/04/07 13:33:48;;;;;;;10.4;7.3;;;;;;;20.94;27.31738;969.3058;;;;
2020/04/07 13:36:14;;;;;;;10.9;7;;;;;;;20.82;27.60547;969.2833;;;;
2020/04/07 13:38:39;;;;;;;11.1;7.3;;;;;;;20.75;27.37598;969.2661;;;;
2020/04/07 13:41:05;;;;;;;11.8;7.2;;;;;;;20.88;27.97363;969.2712;;;;
2020/04/07 13:43:30;;;;;;;9.1;6.6;;;;;;;21.06;27.03027;969.3183;;;;
2020/04/07 13:45:57;;;;;;;11;7.3;;;;;;;20.89;26.25391;969.2704;;;;
2020/04/07 13:48:22;;;;;;;10.3;7.1;;;;;;;20.88;26.63086;969.1926;;;;
2020/04/07 13:50:47;;;;;;;10.7;6.9;;;;;;;20.84;27.62988;969.1646;;;;
2020/04/07 13:53:13;;;;;;;9.1;6.3;;;;;;;20.8;30.01855;969.2196;;;;
2020/04/07 13:55:38;;;;;;;9.2;6.3;;;;;;;20.84;29.14941;969.1447;;;;
2020/04/07 13:58:03;;;;;;;9.7;6.4;;;;;;;20.89;28.18652;969.1311;;;;
2020/04/07 14:00:30;;;;;;;9.3;6;;;;;;;21.11;29.96875;969.1588;;;;
2020/04/07 14:02:56;;;;;;;9.2;6.4;;;;;;;20.82;26.61523;969.1397;;;;
2020/04/07 14:05:21;;;;;;;9.6;6.5;;;;;;;20.94;27.23535;969.0945;;;;
2020/04/07 14:09:22;;;;;;;8.5;6.5;;;;;;;20.8;27.0498;969.0737;;;;
2020/04/07 14:11:48;;;;;;;9.4;7;;;;;;;20.73;29.0127;969.0913;;;;
2020/04/07 14:14:12;;;;;;;11.4;7.3;;;;;;;20.65;27.37012;969.0745;;;;
2020/04/07 14:16:37;;;;;;;10.1;7.2;;;;;;;20.51;28.37402;968.9778;;;;
2020/04/07 14:19:04;;;;;;;9.4;6.5;;;;;;;21.13;28.7793;968.9647;;;;
2020/04/07 14:21:30;;;;;;;9.4;6.6;;;;;;;20.67;27.76074;968.9526;;;;
2020/04/07 14:23:55;;;;;;;10;7;;;;;;;20.9;28.77637;968.8591;;;;
2020/04/07 14:26:20;;;;;;;10.5;6.9;;;;;;;20.74;27.3877;968.8984;;;;
2020/04/07 14:28:45;;;;;;;9.3;7.4;;;;;;;20.73;27.24512;968.9081;;;;
2020/04/07 14:31:12;;;;;;;13.4;7.3;;;;;;;20.81;27.47461;968.9086;;;;
2020/04/07 14:33:36;;;;;;;10.2;7.5;;;;;;;20.78;27.9209;968.8607;;;;
2020/04/07 14:36:01;;;;;;;10.9;7.5;;;;;;;20.91;27.71582;968.8085;;;;